createdAt,value
2023-05-09T00:01:31.656Z,8.91
2023-05-09T00:06:31.295Z,9.23
2023-05-09T00:11:31.265Z,9.02
2023-05-09T00:16:31.223Z,9.01
2023-05-09T00:21:31.135Z,8.93
2023-05-09T00:26:31.021Z,8.96
2023-05-09T00:31:31.133Z,8.88
2023-05-09T00:36:30.934Z,8.73
2023-05-09T00:41:33.867Z,8.96
2023-05-09T00:46:30.862Z,8.55
2023-05-09T00:51:30.716Z,8.60
2023-05-09T00:56:30.602Z,8.37
2023-05-09T01:01:31.462Z,8.35
2023-05-09T01:06:30.526Z,8.39
2023-05-09T01:11:30.487Z,8.17
2023-05-09T01:16:30.463Z,7.97
2023-05-09T01:21:30.392Z,7.97
2023-05-09T01:26:30.222Z,7.92
2023-05-09T01:31:30.266Z,8.22
2023-05-09T01:36:30.103Z,8.02
2023-05-09T01:41:33.117Z,7.71
2023-05-09T01:46:29.997Z,7.42
2023-05-09T01:51:29.961Z,7.72
2023-05-09T01:56:29.928Z,7.53
2023-05-09T02:01:29.851Z,7.62
2023-05-09T02:06:29.755Z,7.44
2023-05-09T02:11:30.353Z,7.37
2023-05-09T02:16:29.621Z,7.27
2023-05-09T02:21:29.555Z,7.23
2023-05-09T02:26:29.451Z,7.31
2023-05-09T02:31:29.435Z,7.15
2023-05-09T02:36:29.361Z,7.31
2023-05-09T02:41:32.261Z,7.15
2023-05-09T02:46:29.239Z,6.98
2023-05-09T02:51:29.146Z,7.27
2023-05-09T02:56:29.050Z,7.09
2023-05-09T03:01:29.066Z,7.23
2023-05-09T03:06:28.946Z,7.41
2023-05-09T03:11:28.888Z,7.44
2023-05-09T03:16:28.848Z,6.89
2023-05-09T03:21:29.916Z,7.09
2023-05-09T03:26:28.683Z,7.01
2023-05-09T03:31:28.661Z,6.91
2023-05-09T03:36:28.599Z,6.65
2023-05-09T03:41:31.570Z,6.54
2023-05-09T03:46:28.459Z,6.79
2023-05-09T03:51:28.441Z,7.01
2023-05-09T03:56:28.316Z,7.50
2023-05-09T04:01:28.596Z,8.17
2023-05-09T04:06:28.138Z,8.78
2023-05-09T04:11:28.130Z,9.63
2023-05-09T04:16:28.067Z,10.22
2023-05-09T04:21:28.104Z,9.88
2023-05-09T04:26:27.910Z,11.16
2023-05-09T04:31:27.917Z,12.30
2023-05-09T04:36:27.768Z,13.04
2023-05-09T04:41:30.726Z,14.09
2023-05-09T04:46:27.665Z,14.37
2023-05-09T04:51:27.615Z,15.13
2023-05-09T04:56:27.453Z,15.45
2023-05-09T05:01:27.459Z,15.78
2023-05-09T05:06:28.192Z,16.23
2023-05-09T05:11:27.401Z,16.09
2023-05-09T05:16:27.275Z,16.34
2023-05-09T05:21:27.193Z,17.11
2023-05-09T05:26:27.121Z,17.88
2023-05-09T05:31:27.124Z,18.61
2023-05-09T05:36:27.151Z,18.91
2023-05-09T05:41:31.089Z,19.08
2023-05-09T05:46:26.945Z,19.50
2023-05-09T05:51:26.841Z,20.42
2023-05-09T05:56:26.703Z,21.02
2023-05-09T06:01:27.151Z,21.81
2023-05-09T06:06:26.539Z,22.07
2023-05-09T06:11:26.538Z,22.67
2023-05-09T06:16:26.451Z,23.45
2023-05-09T06:21:26.394Z,23.29
2023-05-09T06:26:26.249Z,23.11
2023-05-09T06:31:26.367Z,22.89
2023-05-09T06:36:26.275Z,23.20
2023-05-09T06:41:29.159Z,23.46
2023-05-09T06:46:26.174Z,24.07
2023-05-09T06:51:26.532Z,24.26
2023-05-09T06:56:26.033Z,24.20
2023-05-09T07:01:25.974Z,24.41
2023-05-09T07:06:25.816Z,23.92
2023-05-09T07:11:25.754Z,25.35
2023-05-09T07:16:25.714Z,23.98
2023-05-09T07:21:25.690Z,26.28
2023-05-09T07:26:25.516Z,26.35
2023-05-09T07:31:25.827Z,27.29
2023-05-09T07:36:25.402Z,26.96
2023-05-09T07:41:28.411Z,27.59
2023-05-09T07:46:25.310Z,26.69
2023-05-09T07:51:25.269Z,26.12
2023-05-09T07:56:25.176Z,26.96
2023-05-09T08:01:25.142Z,26.87
2023-05-09T08:06:24.993Z,26.31
2023-05-09T08:11:24.983Z,24.80
2023-05-09T08:16:24.935Z,23.94
2023-05-09T08:21:24.895Z,23.08
2023-05-09T08:26:24.804Z,22.57
2023-05-09T08:31:24.772Z,22.75
2023-05-09T08:36:24.612Z,22.22
2023-05-09T08:41:27.593Z,21.94
2023-05-09T08:46:24.518Z,21.46
2023-05-09T08:51:24.445Z,21.71
2023-05-09T08:56:24.377Z,20.25
2023-05-09T09:01:24.461Z,21.04
2023-05-09T09:06:24.200Z,21.48
2023-05-09T09:11:25.325Z,21.78
2023-05-09T09:16:24.128Z,21.54
2023-05-09T09:21:24.403Z,21.57
2023-05-09T09:26:24.001Z,21.66
2023-05-09T09:31:24.040Z,21.92
2023-05-09T09:36:23.974Z,22.39
2023-05-09T09:41:26.875Z,22.41
2023-05-09T09:46:23.853Z,21.94
2023-05-09T09:51:23.834Z,22.16
2023-05-09T09:56:23.672Z,22.17
2023-05-09T10:01:23.658Z,22.50
2023-05-09T10:06:23.441Z,22.13
2023-05-09T10:11:23.420Z,22.06
2023-05-09T10:16:35.703Z,22.06
2023-05-09T10:21:24.521Z,22.32
2023-05-09T10:26:23.184Z,22.19
2023-05-09T10:31:23.451Z,22.65
2023-05-09T10:36:23.129Z,22.72
2023-05-09T10:41:26.413Z,22.56
2023-05-09T10:46:22.973Z,22.60
2023-05-09T10:51:22.891Z,22.80
2023-05-09T10:56:22.805Z,22.90
2023-05-09T11:01:22.786Z,22.83
2023-05-09T11:06:22.664Z,22.86
2023-05-09T11:11:22.652Z,23.08
2023-05-09T11:16:22.568Z,23.27
2023-05-09T11:21:22.594Z,23.40
2023-05-09T11:26:22.377Z,23.43
2023-05-09T11:31:22.417Z,23.68
2023-05-09T11:36:22.273Z,22.99
2023-05-09T11:41:25.308Z,23.60
2023-05-09T11:46:22.232Z,23.27
2023-05-09T11:51:28.151Z,23.77
2023-05-09T11:56:22.025Z,23.94
2023-05-09T12:01:21.932Z,23.83
2023-05-09T12:06:21.828Z,23.83
2023-05-09T12:11:21.826Z,24.02
2023-05-09T12:16:22.305Z,23.97
2023-05-09T12:21:21.760Z,24.12
2023-05-09T12:26:21.545Z,23.62
2023-05-09T12:31:21.563Z,23.90
2023-05-09T12:36:21.411Z,24.08
2023-05-09T12:46:21.368Z,23.98
2023-05-09T12:51:21.307Z,24.26
2023-05-09T12:56:21.154Z,23.92
2023-05-09T13:01:21.214Z,24.04
2023-05-09T13:06:21.053Z,24.14
2023-05-09T13:11:20.999Z,24.71
2023-05-09T13:16:20.889Z,25.07
2023-05-09T13:21:20.851Z,24.88
2023-05-09T13:26:20.761Z,24.80
2023-05-09T13:31:20.792Z,24.85
2023-05-09T13:36:20.593Z,25.19
2023-05-09T13:41:23.670Z,24.98
2023-05-09T13:46:20.552Z,24.91
2023-05-09T13:51:20.905Z,25.22
2023-05-09T13:56:20.382Z,25.43
2023-05-09T14:01:20.289Z,25.47
2023-05-09T14:06:20.209Z,26.02
2023-05-09T14:11:20.203Z,25.61
2023-05-09T14:16:20.109Z,25.94
2023-05-09T14:21:20.043Z,26.49
2023-05-09T14:26:19.918Z,25.87
2023-05-09T14:31:19.969Z,26.72
2023-05-09T14:36:19.868Z,26.99
2023-05-09T14:41:23.627Z,26.81
2023-05-09T14:46:19.998Z,26.98
2023-05-09T14:51:19.619Z,26.55
2023-05-09T14:57:51.567Z,26.42
2023-05-09T15:02:51.413Z,26.80
2023-05-09T15:07:51.355Z,26.57
2023-05-09T15:12:51.437Z,26.43
2023-05-09T15:17:51.443Z,26.99
2023-05-09T15:22:51.147Z,26.73
2023-05-09T15:27:51.108Z,27.36
2023-05-09T15:32:51.110Z,26.42
2023-05-09T15:37:50.963Z,27.16
2023-05-09T15:42:50.906Z,25.27
2023-05-09T15:47:54.022Z,25.43
2023-05-09T15:52:50.834Z,24.94
2023-05-09T15:57:50.740Z,24.63
2023-05-09T16:02:50.705Z,24.45
2023-05-09T16:07:50.618Z,24.53
2023-05-09T16:12:50.542Z,24.16
2023-05-09T16:17:50.450Z,24.34
2023-05-09T16:22:50.353Z,24.17
2023-05-09T16:27:50.314Z,23.68
2023-05-09T16:32:50.283Z,23.85
2023-05-09T16:37:50.264Z,23.85
2023-05-09T16:42:50.140Z,23.95
2023-05-09T16:47:53.133Z,23.75
2023-05-09T16:52:49.970Z,23.49
2023-05-09T16:57:51.465Z,23.40
2023-05-09T17:02:49.928Z,23.34
2023-05-09T17:07:49.812Z,23.40
2023-05-09T17:12:49.948Z,23.12
2023-05-09T17:17:49.746Z,23.01
2023-05-09T17:22:50.183Z,22.69
2023-05-09T17:27:49.614Z,22.68
2023-05-09T17:32:49.467Z,22.49
2023-05-09T17:37:49.422Z,22.43
2023-05-09T17:42:49.313Z,22.44
2023-05-09T17:47:52.362Z,22.31
2023-05-09T17:52:49.164Z,21.97
2023-05-09T17:57:49.140Z,22.09
2023-05-09T18:02:49.074Z,22.10
2023-05-09T18:07:49.611Z,21.98
2023-05-09T18:12:48.922Z,21.76
2023-05-09T18:17:48.913Z,21.50
2023-05-09T18:22:48.789Z,21.34
2023-05-09T18:27:48.813Z,21.13
2023-05-09T18:32:48.751Z,20.98
2023-05-09T18:37:48.663Z,20.83
2023-05-09T18:42:48.536Z,20.79
2023-05-09T18:47:51.533Z,20.54
2023-05-09T18:52:48.410Z,20.13
2023-05-09T18:57:48.363Z,20.31
2023-05-09T19:02:48.277Z,20.13
2023-05-09T19:07:48.230Z,19.90
2023-05-09T19:12:48.182Z,19.68
2023-05-09T19:17:49.779Z,19.68
2023-05-09T19:22:47.978Z,19.58
2023-05-09T19:27:47.973Z,19.29
2023-05-09T19:32:47.888Z,19.21
2023-05-09T19:37:47.862Z,19.24
2023-05-09T19:42:47.769Z,18.98
2023-05-09T19:47:50.762Z,19.01
2023-05-09T19:52:47.730Z,18.59
2023-05-09T19:57:47.794Z,18.77
2023-05-09T20:02:47.601Z,18.62
2023-05-09T20:17:22.165Z,18.21
2023-05-09T20:22:20.050Z,18.17
2023-05-09T20:27:20.972Z,18.10
2023-05-09T20:32:19.904Z,17.94
2023-05-09T20:37:19.888Z,17.73
2023-05-09T20:42:19.813Z,17.32
2023-05-09T20:47:19.794Z,17.03
2023-05-09T20:52:19.694Z,16.88
2023-05-09T20:57:19.620Z,16.81
2023-05-09T21:02:19.581Z,16.83
2023-05-09T21:07:22.579Z,16.96
2023-05-09T21:12:19.512Z,17.29
2023-05-09T21:17:19.434Z,17.17
2023-05-09T21:22:19.284Z,16.95
2023-05-09T21:27:19.326Z,16.44
2023-05-09T21:32:19.183Z,16.44
2023-05-09T21:37:19.211Z,16.12
2023-05-09T21:42:18.973Z,16.11
2023-05-09T21:47:19.106Z,16.20
2023-05-09T21:52:18.840Z,16.09
2023-05-09T21:57:18.902Z,16.52
2023-05-09T22:02:18.816Z,16.86
2023-05-09T22:07:21.751Z,17.07
2023-05-09T22:12:18.689Z,16.38
2023-05-09T22:17:18.717Z,16.35
2023-05-09T22:22:18.522Z,16.33
2023-05-09T22:27:18.419Z,15.72
2023-05-09T22:32:18.334Z,15.49
2023-05-09T22:37:18.326Z,15.33
2023-05-09T22:42:18.188Z,15.23
2023-05-09T22:47:18.231Z,15.08
2023-05-09T22:52:18.042Z,15.38
2023-05-09T22:57:18.013Z,15.39
2023-05-09T23:02:17.926Z,15.42
2023-05-09T23:07:20.865Z,15.52
2023-05-09T23:12:17.759Z,15.36
2023-05-09T23:17:17.749Z,16.04
2023-05-09T23:22:17.611Z,16.07
2023-05-09T23:27:17.583Z,15.93
2023-05-09T23:32:17.487Z,16.06
2023-05-09T23:37:17.456Z,16.01
2023-05-09T23:42:17.363Z,16.12
2023-05-09T23:47:17.324Z,16.25
2023-05-09T23:52:17.223Z,16.42
2023-05-09T23:57:17.259Z,16.45
